Kensington, Connecticut
Current Conditions -  °F | °C
As of 7:53 PM on Thursday 18 Dec 2014 (Local Time) from KMMK Reporting Station
Clear Clear  
Wind Chill: 29°   Ceiling: Unl
Heat Index: 34°   Visibility: 10mi
Dew Point: 25°   Wind: 6mph
Humidity: 70%   Direction: 320°NW
Pressure: 29.93"   Gusts: NA
Location:  41.63°N, 72.77°W
Report Text: KMMK 190053Z AUTO 32005KT 10SM CLR 01/M04 A2993 RMK AO2 SLP135 T00111039 TSNO
Loading
Personal Weather Stations






























Interactive Weather Map New forecast layout! Learn more

10-Day Weather Forecast

Advertisements
Track Severe Weather on mobile